Terminal Aerodrome Forecast
Issued by NWS

Current Version | Previous Version | Graphics & Text | Print | Product List | Glossary On
Versions: 1 2 3 4 5 6 7 8 9 10 11 12 13 14 15 16 17 18 19 20 21 22 23 24 25 26
000
FTUS41 KRLX 281100
TAFCKB
TAF
KCKB 281130Z 2812/2912 26011G18KT P6SM SCT015 BKN025
     FM281600 26011G18KT P6SM SCT025
     FM281700 26011G16KT P6SM VCSH BKN035
     FM281900 27010G16KT 5SM -SHRA VCTS BKN040CB
     FM282200 30005KT P6SM BKN080
     FM290300 31004KT 5SM BR SCT080
     FM290800 00000KT 4SM BR SCT080
     FM291100 00000KT 2SM BR FEW080=

USA.gov is the U.S. government's official web portal to all federal, state and local government web resources and services.